Time;durP1;ratioP1;P1;durP2;ratioP2;P2;SDS_P1;SDS_P2;PMS_P1;PMS_P2;Temp;Humidity;BMP_temperature;BMP_pressure;BME280_temperature;BME280_humidity;BME280_pressure;Samples;Min_cycle;Max_cycle;Signal;HPM_P1;HPM_P2
2023/03/07 00:01:41;;;;;;;;;14.50;9.00;;;;;7.58;97.91;100326.63;5035844;28;61498;-83
2023/03/07 00:04:07;;;;;;;;;15.00;12.25;;;;;7.59;97.88;100323.13;5035435;28;65331;-82
2023/03/07 00:06:33;;;;;;;;;15.00;11.00;;;;;7.59;98.06;100319.69;5020509;28;45709;-83
2023/03/07 00:09:00;;;;;;;;;20.00;12.50;;;;;7.57;97.95;100311.94;5036391;28;45401;-83
2023/03/07 00:11:26;;;;;;;;;21.50;12.00;;;;;7.56;98.02;100320.63;5017555;28;48402;-83
2023/03/07 00:13:51;;;;;;;;;14.25;9.75;;;;;7.52;98.26;100325.03;5051655;28;45984;-82
2023/03/07 00:16:19;;;;;;;;;16.75;9.00;;;;;7.46;98.95;100319.97;5034475;28;45336;-83
2023/03/07 00:18:45;;;;;;;;;13.50;10.50;;;;;7.45;98.68;100320.88;5034248;28;45498;-83
2023/03/07 00:21:12;;;;;;;;;12.25;11.75;;;;;7.43;98.32;100309.69;5034597;28;45345;-82
2023/03/07 00:23:40;;;;;;;;;10.25;8.50;;;;;7.42;98.80;100307.13;5034781;28;45726;-83
2023/03/07 00:26:07;;;;;;;;;17.75;10.50;;;;;7.40;98.69;100304.56;5034464;28;45324;-83
2023/03/07 00:28:32;;;;;;;;;18.00;11.00;;;;;7.39;99.02;100308.03;5034912;28;45503;-83
2023/03/07 00:30:59;;;;;;;;;16.00;12.25;;;;;7.34;98.55;100299.53;5034926;28;70373;-83
2023/03/07 00:33:25;;;;;;;;;11.25;6.75;;;;;7.30;99.01;100301.34;5051221;28;45376;-82
2023/03/07 00:35:59;;;;;;;;;9.00;4.00;;;;;7.25;98.84;100305.78;5034507;28;45300;-82
2023/03/07 00:38:24;;;;;;;;;21.50;12.00;;;;;7.22;99.09;100300.66;5034958;28;45412;-82
2023/03/07 00:41:00;;;;;;;;;15.00;9.50;;;;;7.22;99.77;100292.03;5034631;28;45616;-83
2023/03/07 00:43:26;;;;;;;;;16.75;10.50;;;;;7.26;99.98;100297.13;5034583;28;45281;-83
2023/03/07 00:45:51;;;;;;;;;10.25;9.00;;;;;7.25;99.84;100294.56;5034157;28;45517;-83
2023/03/07 00:48:17;;;;;;;;;20.00;10.50;;;;;7.23;99.98;100288.56;5034602;28;63812;-83
2023/03/07 00:50:42;;;;;;;;;19.00;11.00;;;;;7.22;99.27;100282.53;5035222;28;45529;-82
2023/03/07 00:53:08;;;;;;;;;12.00;9.75;;;;;7.25;99.71;100279.03;5034482;28;45349;-83
2023/03/07 00:55:33;;;;;;;;;13.50;8.75;;;;;7.24;99.85;100272.13;5033104;28;64873;-82
2023/03/07 00:57:58;;;;;;;;;12.00;8.00;;;;;7.23;99.89;100283.41;5035183;28;66212;-82
2023/03/07 01:00:24;;;;;;;;;18.75;13.25;;;;;7.20;99.16;100273.09;5034642;28;68436;-82
2023/03/07 01:02:50;;;;;;;;;14.50;11.00;;;;;7.23;99.79;100273.88;5035155;28;45638;-83
2023/03/07 01:05:15;;;;;;;;;20.25;10.00;;;;;7.26;99.40;100267.78;5034096;28;45381;-83
2023/03/07 01:07:41;;;;;;;;;15.00;8.00;;;;;7.26;99.42;100263.47;5035647;28;45436;-82
2023/03/07 01:10:06;;;;;;;;;16.50;12.25;;;;;7.28;99.41;100268.59;5032828;28;67447;-83
2023/03/07 01:12:32;;;;;;;;;18.50;12.00;;;;;7.26;99.74;100253.13;5035572;28;45491;-83
2023/03/07 01:14:57;;;;;;;;;23.75;11.50;;;;;7.26;99.36;100250.53;5034837;28;58477;-83
2023/03/07 01:17:22;;;;;;;;;11.75;9.50;;;;;7.30;99.97;100248.69;5034439;28;62049;-82
2023/03/07 01:19:48;;;;;;;;;12.00;9.00;;;;;7.27;99.41;100241.00;5049755;28;72333;-82
2023/03/07 01:22:13;;;;;;;;;17.00;12.75;;;;;7.23;99.62;100240.22;5034705;28;66536;-82
2023/03/07 01:24:38;;;;;;;;;11.50;10.50;;;;;7.22;100.00;100229.91;5050555;28;45365;-82
2023/03/07 01:27:04;;;;;;;;;18.25;12.75;;;;;7.23;99.83;100232.47;5032873;28;60232;-83
2023/03/07 01:29:29;;;;;;;;;11.25;10.00;;;;;7.24;100.00;100233.31;5037220;28;46235;-83
2023/03/07 01:31:54;;;;;;;;;12.75;8.00;;;;;7.21;99.70;100234.25;5037587;28;65205;-83
2023/03/07 01:34:20;;;;;;;;;18.25;13.25;;;;;7.17;99.78;100217.94;5036808;28;54204;-82
2023/03/07 01:36:45;;;;;;;;;19.25;11.25;;;;;7.19;99.82;100220.50;5038724;28;45493;-82
2023/03/07 01:39:13;;;;;;;;;16.00;11.50;;;;;7.20;99.93;100222.19;5037873;28;68935;-82
2023/03/07 01:41:38;;;;;;;;;9.00;9.00;;;;;7.17;99.51;100217.09;5020470;28;45366;-83
2023/03/07 01:44:13;;;;;;;;;17.25;9.00;;;;;7.17;100.00;100214.50;5037187;28;45437;-82
2023/03/07 01:46:43;;;;;;;;;19.00;11.00;;;;;7.17;100.00;100199.81;5036586;28;45474;-82
2023/03/07 01:49:30;;;;;;;;;14.00;11.00;;;;;7.20;99.85;100204.06;5038473;28;45312;-83
2023/03/07 01:52:03;;;;;;;;;13.50;9.75;;;;;7.24;100.00;100202.25;5036183;28;45857;-83
2023/03/07 01:54:30;;;;;;;;;16.00;10.50;;;;;7.24;100.00;100199.66;5038564;28;45333;-82
2023/03/07 01:56:56;;;;;;;;;10.75;9.00;;;;;7.21;100.00;100200.59;5036993;28;45302;-83
2023/03/07 01:59:28;;;;;;;;;15.25;11.75;;;;;7.16;100.00;100197.25;5037570;28;46328;-83
2023/03/07 02:01:54;;;;;;;;;15.00;10.50;;;;;7.14;99.96;100191.25;5036447;28;45815;-83
2023/03/07 02:04:59;;;;;;;;;19.25;12.50;;;;;7.14;99.76;100191.25;5037208;28;45376;-82
2023/03/07 02:07:27;;;;;;;;;19.50;10.50;;;;;7.12;99.80;100186.13;5025491;28;45341;-83
2023/03/07 02:09:53;;;;;;;;;18.00;11.50;;;;;7.13;100.00;100177.47;5036919;28;46803;-82
2023/03/07 02:12:18;;;;;;;;;18.75;11.25;;;;;7.18;99.99;100174.75;5036000;28;66731;-83
2023/03/07 02:14:46;;;;;;;;;17.25;8.75;;;;;7.19;99.92;100181.66;5038527;28;45487;-83
2023/03/07 02:17:11;;;;;;;;;13.75;11.00;;;;;7.14;100.00;100163.63;5038176;28;45317;-82
2023/03/07 02:19:47;;;;;;;;;9.75;4.25;;;;;7.12;100.00;100164.56;5037936;28;45374;-83
2023/03/07 02:22:16;;;;;;;;;17.25;11.00;;;;;7.11;100.00;100160.28;5018095;28;45406;-82
2023/03/07 02:24:56;;;;;;;;;15.25;9.00;;;;;7.07;100.00;100154.31;5053410;28;45305;-83
2023/03/07 02:27:23;;;;;;;;;18.00;11.50;;;;;7.04;100.00;100149.22;5036681;28;45384;-83
2023/03/07 02:29:49;;;;;;;;;12.25;8.00;;;;;7.03;100.00;100154.44;5037257;28;45405;-83
2023/03/07 02:32:14;;;;;;;;;19.50;11.25;;;;;7.02;100.00;100153.59;5035836;28;61764;-83
2023/03/07 02:34:40;;;;;;;;;14.75;11.25;;;;;6.99;100.00;100138.13;5037487;28;45502;-83
2023/03/07 02:37:32;;;;;;;;;14.75;11.00;;;;;6.95;100.00;100141.69;5037574;28;60411;-83
2023/03/07 02:40:00;;;;;;;;;17.50;10.00;;;;;6.92;100.00;100139.16;5033397;28;46496;-82
2023/03/07 02:42:28;;;;;;;;;11.00;10.75;;;;;6.90;100.00;100136.59;5036469;28;45499;-83
2023/03/07 02:44:59;;;;;;;;;15.50;8.50;;;;;6.90;100.00;100144.34;5035964;28;45293;-83
2023/03/07 02:47:25;;;;;;;;;14.75;11.00;;;;;6.83;100.00;100137.63;5037773;28;45265;-83
2023/03/07 02:49:50;;;;;;;;;11.00;5.25;;;;;6.82;100.00;100127.34;5037178;28;45606;-83
2023/03/07 02:52:16;;;;;;;;;13.25;9.50;;;;;6.84;100.00;100120.38;5037584;28;45438;-81
2023/03/07 02:54:41;;;;;;;;;19.00;12.00;;;;;6.86;100.00;100127.22;5037574;28;45269;-83
2023/03/07 02:57:06;;;;;;;;;15.50;10.50;;;;;6.90;100.00;100125.41;5035719;28;63868;-83
2023/03/07 02:59:32;;;;;;;;;15.00;13.00;;;;;6.84;100.00;100120.38;5036919;28;46049;-82
2023/03/07 03:01:57;;;;;;;;;14.25;5.50;;;;;6.85;100.00;100119.50;5036116;28;45380;-83
2023/03/07 03:04:23;;;;;;;;;17.75;11.00;;;;;6.86;100.00;100122.03;5014527;28;53582;-83
2023/03/07 03:06:48;;;;;;;;;12.25;10.50;;;;;6.85;100.00;100120.31;5016279;28;45437;-82
2023/03/07 03:09:15;;;;;;;;;15.75;10.50;;;;;6.86;100.00;100114.28;5019428;28;46904;-83
2023/03/07 03:11:40;;;;;;;;;13.50;10.25;;;;;6.88;100.00;100114.25;5037182;28;45382;-82
2023/03/07 03:14:06;;;;;;;;;16.75;9.50;;;;;6.92;100.00;100106.38;5036700;28;47110;-83
2023/03/07 03:16:32;;;;;;;;;13.50;10.25;;;;;7.00;100.00;100105.34;5037319;28;45313;-83
2023/03/07 03:18:57;;;;;;;;;22.50;11.50;;;;;7.04;100.00;100094.00;5037130;28;59389;-83
2023/03/07 03:21:22;;;;;;;;;11.25;8.00;;;;;7.02;100.00;100099.25;5035078;28;65228;-83
2023/03/07 03:23:48;;;;;;;;;15.25;12.00;;;;;7.02;100.00;100100.97;5036528;28;59900;-82
2023/03/07 03:26:13;;;;;;;;;16.00;12.25;;;;;7.00;100.00;100097.56;5052359;28;52471;-83
2023/03/07 03:28:38;;;;;;;;;20.50;13.50;;;;;6.98;100.00;100101.06;5034427;28;69061;-82
2023/03/07 03:31:09;;;;;;;;;11.75;9.00;;;;;7.00;100.00;100103.59;5037049;28;45322;-83
2023/03/07 03:33:35;;;;;;;;;15.00;11.25;;;;;7.00;100.00;100103.59;5037088;28;45554;-82
2023/03/07 03:36:06;;;;;;;;;17.25;11.00;;;;;6.98;100.00;100097.59;5035541;28;45403;-83
2023/03/07 03:38:32;;;;;;;;;13.75;11.00;;;;;7.03;100.00;100089.75;5036818;28;45692;-83
2023/03/07 03:40:57;;;;;;;;;12.00;11.00;;;;;7.07;100.00;100092.19;5036356;28;45492;-83
2023/03/07 03:43:23;;;;;;;;;13.25;10.50;;;;;7.09;100.00;100095.59;5036583;28;45431;-83
2023/03/07 03:45:55;;;;;;;;;11.75;10.00;;;;;7.12;100.00;100086.94;5035994;28;55446;-83
2023/03/07 03:48:21;;;;;;;;;17.50;8.75;;;;;7.09;100.00;100087.84;5036225;28;46721;-82
2023/03/07 03:50:46;;;;;;;;;12.75;9.50;;;;;7.07;100.00;100087.03;5035137;28;45473;-83
2023/03/07 03:53:12;;;;;;;;;15.75;10.75;;;;;7.09;100.00;100082.66;5034021;28;54136;-83
2023/03/07 03:55:37;;;;;;;;;17.50;10.00;;;;;7.06;100.00;100072.41;5034821;28;55305;-83
2023/03/07 03:58:03;;;;;;;;;15.50;11.50;;;;;7.07;100.00;100070.66;5034953;28;47048;-83
2023/03/07 04:00:29;;;;;;;;;11.00;8.25;;;;;7.09;100.00;100067.13;5036278;28;45498;-83
2023/03/07 04:02:55;;;;;;;;;16.75;11.75;;;;;7.12;100.00;100064.47;5036587;28;45413;-83
2023/03/07 04:05:20;;;;;;;;;17.00;11.25;;;;;7.14;100.00;100065.28;5036172;28;45445;-82
2023/03/07 04:07:46;;;;;;;;;13.25;9.00;;;;;7.16;100.00;100062.66;5035056;28;45452;-83
2023/03/07 04:10:12;;;;;;;;;14.25;7.00;;;;;7.16;100.00;100071.25;5034913;28;45462;-83
2023/03/07 04:12:37;;;;;;;;;12.50;10.00;;;;;7.13;100.00;100066.19;5034876;28;45333;-83
2023/03/07 04:15:03;;;;;;;;;12.75;9.00;;;;;7.11;100.00;100062.78;5034193;28;45326;-83
2023/03/07 04:17:29;;;;;;;;;17.75;12.00;;;;;7.12;100.00;100058.47;5036052;28;46442;-83
2023/03/07 04:19:54;;;;;;;;;11.25;8.25;;;;;7.10;100.00;100053.31;5035373;28;66840;-83
2023/03/07 04:22:20;;;;;;;;;15.75;12.00;;;;;7.08;100.00;100057.69;5035840;28;53551;-83
2023/03/07 04:24:45;;;;;;;;;12.75;9.00;;;;;7.08;100.00;100062.03;5035681;28;45387;-83
2023/03/07 04:27:10;;;;;;;;;10.75;8.50;;;;;7.06;100.00;100059.47;5034906;28;61942;-84
2023/03/07 04:29:36;;;;;;;;;8.00;8.00;;;;;7.07;100.00;100055.97;5034991;28;68188;-83
2023/03/07 04:32:01;;;;;;;;;14.75;8.50;;;;;7.08;100.00;100057.69;5036367;28;45321;-83
2023/03/07 04:34:26;;;;;;;;;12.50;9.00;;;;;7.07;100.00;100055.97;5033966;28;63860;-83
2023/03/07 04:36:52;;;;;;;;;19.75;8.25;;;;;7.07;100.00;100045.63;5034992;28;64476;-83
2023/03/07 04:39:17;;;;;;;;;11.75;10.50;;;;;7.10;100.00;100055.06;5034943;28;63803;-83
2023/03/07 04:41:43;;;;;;;;;15.25;11.00;;;;;7.08;100.00;100049.06;5035571;28;45442;-83
2023/03/07 04:44:08;;;;;;;;;15.50;9.25;;;;;7.04;100.00;100040.53;5035171;28;49996;-83
2023/03/07 04:46:33;;;;;;;;;20.50;14.25;;;;;7.04;100.00;100037.94;5035073;28;66817;-83
2023/03/07 04:48:59;;;;;;;;;11.50;11.50;;;;;7.06;100.00;100033.59;5034615;28;59402;-83
2023/03/07 04:51:24;;;;;;;;;15.25;8.25;;;;;7.06;100.00;100036.19;5035686;28;45265;-83
2023/03/07 04:53:49;;;;;;;;;9.50;8.00;;;;;7.05;100.00;100029.28;5034613;28;58358;-83
2023/03/07 04:56:15;;;;;;;;;13.75;9.75;;;;;7.01;100.00;100032.00;5033888;28;45599;-82
2023/03/07 04:58:40;;;;;;;;;13.00;8.75;;;;;6.99;100.00;100026.88;5035403;28;45364;-81
2023/03/07 05:01:06;;;;;;;;;10.00;7.50;;;;;7.01;100.00;100026.81;5035567;28;45425;-83
2023/03/07 05:03:32;;;;;;;;;10.50;8.75;;;;;7.00;100.00;100027.69;5037750;28;57010;-81
2023/03/07 05:06:06;;;;;;;;;13.00;9.50;;;;;7.01;100.00;100026.81;5041335;28;46451;-83
2023/03/07 05:08:31;;;;;;;;;13.25;9.00;;;;;7.03;100.00;100028.47;5042291;28;45408;-83
2023/03/07 05:10:57;;;;;;;;;13.25;11.00;;;;;7.03;100.00;100025.03;5040691;28;64071;-82
2023/03/07 05:13:22;;;;;;;;;14.25;10.75;;;;;7.03;100.00;100025.03;5024333;28;45389;-83
2023/03/07 05:15:52;;;;;;;;;15.75;9.00;;;;;7.04;100.00;100027.59;5041018;28;70333;-82
2023/03/07 05:18:18;;;;;;;;;13.50;12.50;;;;;7.03;100.00;100028.47;5041938;28;45333;-82
2023/03/07 05:20:43;;;;;;;;;12.50;11.50;;;;;6.98;100.00;100026.03;5041943;28;45339;-83
2023/03/07 05:23:08;;;;;;;;;18.25;10.50;;;;;6.90;100.00;100022.75;5040197;28;62222;-83
2023/03/07 05:25:34;;;;;;;;;15.00;11.00;;;;;6.87;100.00;100022.84;5040504;28;65762;-83
2023/03/07 05:27:59;;;;;;;;;11.50;11.00;;;;;6.85;100.00;100016.84;5040137;28;60792;-82
2023/03/07 05:30:24;;;;;;;;;13.50;8.25;;;;;6.84;100.00;100011.72;5040973;28;61271;-82
2023/03/07 05:32:50;;;;;;;;;11.00;7.00;;;;;6.79;100.00;100010.09;5042188;28;45352;-83
2023/03/07 05:35:15;;;;;;;;;14.75;9.50;;;;;6.77;100.00;100008.44;5041712;28;45403;-83
2023/03/07 05:37:41;;;;;;;;;12.50;10.50;;;;;6.78;100.00;100018.75;5041940;28;45393;-82
2023/03/07 05:40:09;;;;;;;;;15.25;9.25;;;;;6.77;100.00;100005.84;5040078;28;45355;-83
2023/03/07 05:42:35;;;;;;;;;20.75;11.50;;;;;6.76;100.00;100007.59;5041711;28;45273;-82
2023/03/07 05:45:01;;;;;;;;;12.50;11.50;;;;;6.77;100.00;100014.47;5040338;28;46366;-82
2023/03/07 05:47:26;;;;;;;;;17.75;11.00;;;;;6.74;100.00;99999.03;5041112;28;62111;-83
2023/03/07 05:49:51;;;;;;;;;15.25;11.00;;;;;6.70;100.00;100002.56;5041009;28;55509;-82
2023/03/07 05:52:19;;;;;;;;;12.25;7.75;;;;;6.65;100.00;100004.44;5040664;28;45386;-82
2023/03/07 05:54:44;;;;;;;;;11.50;9.75;;;;;6.62;100.00;100006.25;5040957;28;46738;-83
2023/03/07 05:57:10;;;;;;;;;16.75;10.75;;;;;6.62;100.00;100006.25;5037704;28;46206;-82
2023/03/07 05:59:35;;;;;;;;;17.25;10.50;;;;;6.62;100.00;99995.91;5040294;28;45468;-84
2023/03/07 06:02:00;;;;;;;;;15.00;11.00;;;;;6.57;100.00;99998.56;5041645;28;45376;-80
2023/03/07 06:04:26;;;;;;;;;15.00;9.50;;;;;6.54;100.00;99996.94;5040941;28;46208;-77
2023/03/07 06:06:51;;;;;;;;;12.50;9.25;;;;;6.54;100.00;99999.50;5041246;28;45525;-78
2023/03/07 06:09:16;;;;;;;;;9.00;6.00;;;;;6.57;100.00;99993.41;5040619;28;62651;-78
2023/03/07 06:11:42;;;;;;;;;18.25;11.25;;;;;6.60;100.00;99990.75;5040335;28;60950;-79
2023/03/07 06:14:07;;;;;;;;;14.75;7.25;;;;;6.59;100.00;99995.09;5040246;28;67987;-79
2023/03/07 06:16:32;;;;;;;;;14.25;9.25;;;;;6.58;100.00;99998.53;5036005;28;65177;-78
2023/03/07 06:18:58;;;;;;;;;13.50;8.00;;;;;6.56;100.00;99996.91;5036851;28;64922;-80
2023/03/07 06:21:23;;;;;;;;;15.75;10.50;;;;;6.55;100.00;100002.94;5036083;28;63980;-78
2023/03/07 06:23:48;;;;;;;;;12.00;10.00;;;;;6.51;100.00;99999.56;5037251;28;69503;-78
2023/03/07 06:26:14;;;;;;;;;16.00;9.00;;;;;6.47;100.00;100000.53;5037694;28;45534;-79
2023/03/07 06:28:40;;;;;;;;;10.00;8.75;;;;;6.47;100.00;99991.94;5037616;28;52297;-79
2023/03/07 06:31:15;;;;;;;;;12.00;8.50;;;;;6.51;100.00;99990.97;5037929;28;45373;-79
2023/03/07 06:33:42;;;;;;;;;22.25;12.50;;;;;6.51;100.00;99990.97;5038426;28;45461;-78
2023/03/07 06:36:10;;;;;;;;;15.50;8.00;;;;;6.51;100.00;99989.22;5037237;28;45337;-79
2023/03/07 06:38:35;;;;;;;;;12.75;9.50;;;;;6.57;100.00;99989.09;5036372;28;45420;-79
2023/03/07 06:41:00;;;;;;;;;16.75;11.75;;;;;6.58;100.00;99990.78;5037648;28;45325;-79
2023/03/07 06:43:26;;;;;;;;;13.75;9.50;;;;;6.59;100.00;99999.38;5036711;28;46308;-79
2023/03/07 06:45:51;;;;;;;;;14.25;10.50;;;;;6.63;100.00;100001.03;5037238;28;45429;-78
2023/03/07 06:48:17;;;;;;;;;9.25;8.00;;;;;6.66;100.00;99992.34;5036535;28;45882;-77
2023/03/07 06:50:43;;;;;;;;;13.75;11.00;;;;;6.67;100.00;100001.81;5036032;28;45625;-78
2023/03/07 06:53:09;;;;;;;;;11.00;11.00;;;;;6.63;100.00;99995.88;5037082;28;45481;-78
2023/03/07 06:55:34;;;;;;;;;13.25;9.00;;;;;6.60;100.00;100001.09;5036181;28;68294;-78
2023/03/07 06:57:59;;;;;;;;;19.25;11.00;;;;;6.61;100.00;100005.38;5037054;28;47071;-78
2023/03/07 07:00:25;;;;;;;;;15.75;12.00;;;;;6.63;100.00;99995.00;5036769;28;45353;-78
2023/03/07 07:02:50;;;;;;;;;12.00;11.00;;;;;6.69;100.00;100000.03;5036360;28;70376;-78
2023/03/07 07:05:16;;;;;;;;;14.50;8.75;;;;;6.73;100.00;100006.81;5036678;28;63426;-79
2023/03/07 07:07:41;;;;;;;;;17.50;9.50;;;;;6.75;100.00;99999.88;5036658;28;45462;-79
2023/03/07 07:10:07;;;;;;;;;17.25;11.50;;;;;6.81;100.00;100001.44;5036069;28;65027;-79
2023/03/07 07:12:32;;;;;;;;;14.00;9.00;;;;;6.86;100.00;100002.19;5036471;28;45427;-78
2023/03/07 07:15:00;;;;;;;;;16.00;10.00;;;;;6.87;100.00;100001.28;5035740;28;65035;-80
2023/03/07 07:17:27;;;;;;;;;12.00;9.00;;;;;6.89;100.00;100002.97;5036826;28;45372;-76
2023/03/07 07:19:52;;;;;;;;;19.25;11.75;;;;;6.92;100.00;100000.28;5035180;28;45382;-78
2023/03/07 07:22:18;;;;;;;;;18.50;9.50;;;;;6.93;100.00;100003.75;5035951;28;72984;-78
2023/03/07 07:24:43;;;;;;;;;11.50;11.25;;;;;6.86;100.00;100008.22;5035340;28;67767;-77
2023/03/07 07:27:09;;;;;;;;;14.25;8.00;;;;;6.85;100.00;100003.06;5036908;28;45249;-78
2023/03/07 07:29:34;;;;;;;;;11.50;11.00;;;;;6.87;100.00;100002.16;5035136;28;51401;-76
2023/03/07 07:31:59;;;;;;;;;16.50;11.50;;;;;6.86;100.00;100004.78;5035907;28;65614;-78
2023/03/07 07:34:25;;;;;;;;;10.50;9.00;;;;;6.85;100.00;100008.25;5035204;28;61091;-77
2023/03/07 07:36:51;;;;;;;;;11.50;11.00;;;;;6.85;100.00;100006.50;5036871;28;45309;-78
2023/03/07 07:39:17;;;;;;;;;16.25;9.00;;;;;6.90;100.00;99996.88;5032453;28;45640;-78
2023/03/07 07:41:43;;;;;;;;;12.50;11.00;;;;;6.97;100.00;100001.03;5031569;28;46355;-78
2023/03/07 07:44:09;;;;;;;;;10.75;7.00;;;;;6.96;100.00;99999.34;5033846;28;45346;-79
2023/03/07 07:46:34;;;;;;;;;9.50;7.75;;;;;6.98;100.00;99994.97;5036339;28;45651;-78
2023/03/07 07:49:00;;;;;;;;;12.00;6.25;;;;;7.00;100.00;100004.41;5034394;28;67506;-79
2023/03/07 07:51:25;;;;;;;;;9.50;8.00;;;;;7.02;100.00;100012.97;5033856;28;71466;-79
2023/03/07 07:53:50;;;;;;;;;10.75;7.00;;;;;7.05;100.00;100008.59;5035017;28;66527;-79
2023/03/07 07:56:16;;;;;;;;;12.25;8.25;;;;;7.06;100.00;100005.13;5034258;28;45512;-79
2023/03/07 07:58:41;;;;;;;;;13.50;8.00;;;;;7.09;100.00;100005.00;5035546;28;45353;-79
2023/03/07 08:01:19;;;;;;;;;11.75;8.75;;;;;7.11;100.00;100004.97;5035817;28;45427;-79
2023/03/07 08:03:44;;;;;;;;;12.25;10.50;;;;;7.13;100.00;100008.38;5031073;28;46677;-80
2023/03/07 08:06:10;;;;;;;;;8.75;8.00;;;;;7.16;100.00;100014.31;5032454;28;45435;-80
2023/03/07 08:08:35;;;;;;;;;8.25;5.75;;;;;7.15;100.00;100019.53;5032656;28;58099;-79
2023/03/07 08:11:01;;;;;;;;;12.75;8.25;;;;;7.20;100.00;100019.44;5034678;28;71267;-79
2023/03/07 08:13:27;;;;;;;;;9.50;8.25;;;;;7.21;100.00;100014.22;5031332;28;45431;-80
2023/03/07 08:15:52;;;;;;;;;8.75;7.00;;;;;7.16;100.00;100022.09;5034715;28;45479;-80
2023/03/07 08:18:17;;;;;;;;;12.75;7.50;;;;;7.15;100.00;100016.94;5034947;28;45414;-81
2023/03/07 08:20:43;;;;;;;;;10.50;8.00;;;;;7.17;100.00;100015.19;5030785;28;71202;-79
2023/03/07 08:23:08;;;;;;;;;9.00;6.25;;;;;7.15;100.00;100015.22;5033042;28;46450;-79
2023/03/07 08:25:33;;;;;;;;;14.75;9.50;;;;;7.16;100.00;100010.91;5045933;28;55694;-78
2023/03/07 08:28:01;;;;;;;;;13.25;5.50;;;;;7.16;100.00;100011.72;5045580;28;66723;-80
2023/03/07 08:30:28;;;;;;;;;12.00;11.00;;;;;7.21;100.00;100019.41;5053603;28;45430;-79
2023/03/07 08:32:54;;;;;;;;;11.00;8.00;;;;;7.24;100.00;100018.44;5037491;28;45932;-79
2023/03/07 08:35:20;;;;;;;;;10.25;8.25;;;;;7.27;100.00;100008.88;5047209;28;45443;-79
2023/03/07 08:37:47;;;;;;;;;11.25;8.50;;;;;7.33;100.00;100010.44;5037320;28;45658;-78
2023/03/07 08:40:14;;;;;;;;;11.00;7.00;;;;;7.36;100.00;100007.78;5035669;28;46259;-78
2023/03/07 08:42:40;;;;;;;;;8.25;7.00;;;;;7.40;100.00;100003.38;5021872;28;45357;-79
2023/03/07 08:45:05;;;;;;;;;8.00;5.50;;;;;7.43;100.00;100009.31;5042613;28;46182;-78
2023/03/07 08:47:31;;;;;;;;;14.50;7.25;;;;;7.50;100.00;100015.16;5035768;28;45359;-78
2023/03/07 08:49:56;;;;;;;;;8.00;5.00;;;;;7.56;100.00;100004.63;5038265;28;71137;-79
2023/03/07 08:52:21;;;;;;;;;11.00;6.25;;;;;7.66;100.00;100015.59;5035304;28;45473;-79
2023/03/07 08:54:47;;;;;;;;;9.25;6.75;;;;;7.72;100.00;100018.81;5047470;28;60192;-79
2023/03/07 08:57:12;;;;;;;;;10.00;9.25;;;;;7.78;100.00;100010.03;5021827;28;54424;-79
2023/03/07 08:59:37;;;;;;;;;19.25;8.75;;;;;7.82;100.00;100005.59;5045486;28;63094;-79
2023/03/07 09:02:03;;;;;;;;;8.00;6.50;;;;;7.90;100.00;100014.03;5038273;28;67646;-79
2023/03/07 09:04:28;;;;;;;;;13.75;8.25;;;;;7.98;100.00;100017.22;5044610;28;64916;-79
2023/03/07 09:06:55;;;;;;;;;8.00;6.50;;;;;8.02;100.00;100010.22;5039679;28;45455;-79
2023/03/07 09:09:21;;;;;;;;;8.75;7.50;;;;;8.11;100.00;100012.53;5045934;28;46355;-79
2023/03/07 09:11:46;;;;;;;;;13.50;6.50;;;;;8.12;99.86;100009.88;5042024;28;45308;-79
2023/03/07 09:14:11;;;;;;;;;14.00;7.50;;;;;8.15;99.86;100001.16;5035077;28;65360;-79
2023/03/07 09:16:37;;;;;;;;;7.00;4.50;;;;;8.17;100.00;100004.56;5036159;28;45388;-78
2023/03/07 09:19:02;;;;;;;;;9.00;6.50;;;;;8.22;100.00;100000.09;5026654;28;68425;-79
2023/03/07 09:21:28;;;;;;;;;9.50;7.00;;;;;8.29;99.43;100004.19;5041571;28;45471;-79
2023/03/07 09:23:53;;;;;;;;;12.50;8.25;;;;;8.40;99.76;100006.44;5035080;28;45542;-79
2023/03/07 09:26:19;;;;;;;;;13.25;9.00;;;;;8.47;98.63;99997.59;5035769;28;45344;-80
2023/03/07 09:28:44;;;;;;;;;13.25;8.00;;;;;8.58;98.40;99997.28;5038680;28;46411;-78
2023/03/07 09:31:12;;;;;;;;;10.50;7.00;;;;;8.68;97.84;99996.06;5050355;28;45565;-79
2023/03/07 09:33:38;;;;;;;;;9.00;6.00;;;;;8.72;98.22;99997.63;5040420;28;45364;-79
2023/03/07 09:36:08;;;;;;;;;12.25;8.00;;;;;8.79;97.78;99994.88;5044255;28;45406;-78
2023/03/07 09:38:34;;;;;;;;;8.75;5.75;;;;;8.86;97.42;99989.41;5080526;27;45482;-79
2023/03/07 09:41:05;;;;;;;;;9.75;7.50;;;;;9.02;97.30;99996.66;5052277;28;51883;-79
2023/03/07 09:43:43;;;;;;;;;9.25;8.00;;;;;9.15;96.76;99986.72;5050960;28;45253;-81
2023/03/07 09:46:30;;;;;;;;;7.00;6.00;;;;;9.25;95.86;99980.31;5039695;28;45416;-79
2023/03/07 09:49:16;;;;;;;;;10.00;6.00;;;;;9.34;95.46;99982.53;5023161;28;45870;-79
2023/03/07 09:51:42;;;;;;;;;10.00;8.50;;;;;9.46;95.50;99978.69;5042385;28;45451;-79
2023/03/07 09:54:12;;;;;;;;;9.00;2.00;;;;;9.54;94.95;99978.38;5046703;28;45495;-80
2023/03/07 09:56:55;;;;;;;;;7.50;7.50;;;;;9.57;92.97;99980.88;5037688;28;45340;-79
2023/03/07 09:59:38;;;;;;;;;8.00;8.00;;;;;9.53;92.47;99981.88;5023760;28;45536;-79
2023/03/07 10:02:13;;;;;;;;;14.00;6.25;;;;;9.44;93.30;99963.13;5047995;28;45935;-80
2023/03/07 10:04:50;;;;;;;;;15.50;6.00;;;;;9.51;93.57;99961.19;5053967;28;45495;-80
2023/03/07 10:07:16;;;;;;;;;6.50;6.00;;;;;9.67;93.21;99961.44;5039075;28;45304;-80
2023/03/07 10:09:43;;;;;;;;;8.75;7.25;;;;;9.81;92.74;99955.72;5031996;28;45862;-80
2023/03/07 10:12:11;;;;;;;;;9.50;8.50;;;;;9.97;92.13;99964.59;5046415;28;45369;-80
2023/03/07 10:14:55;;;;;;;;;9.75;6.50;;;;;10.12;92.16;99955.34;5042428;28;45418;-81
2023/03/07 10:17:44;;;;;;;;;9.00;7.25;;;;;10.24;91.88;99959.25;5018278;28;45465;-80
2023/03/07 10:20:45;;;;;;;;;12.25;7.00;;;;;10.27;91.12;99954.78;5024009;28;45522;-78
2023/03/07 10:23:27;;;;;;;;;6.75;5.75;;;;;10.24;89.58;99944.47;5053284;28;46060;-80
2023/03/07 10:25:57;;;;;;;;;9.50;5.75;;;;;10.18;90.09;99939.53;5045474;28;45497;-79
2023/03/07 10:28:25;;;;;;;;;13.25;8.50;;;;;10.16;89.94;99930.94;5042688;28;45444;-79
2023/03/07 10:30:55;;;;;;;;;9.50;5.00;;;;;10.18;89.90;99934.34;5085957;27;45665;-79
2023/03/07 10:33:20;;;;;;;;;10.00;7.25;;;;;10.20;89.90;99934.28;5023452;28;45405;-79
2023/03/07 10:35:50;;;;;;;;;9.25;7.25;;;;;10.15;89.69;99934.44;5049570;28;45382;-79
2023/03/07 10:38:54;;;;;;;;;13.00;8.00;;;;;10.10;89.63;99940.75;5047113;28;45486;-79
2023/03/07 10:41:20;;;;;;;;;9.25;6.75;;;;;10.03;89.68;99934.94;5017745;28;46431;-79
2023/03/07 10:43:48;;;;;;;;;7.25;6.50;;;;;10.04;89.09;99932.25;5046875;28;55148;-80
2023/03/07 10:46:34;;;;;;;;;8.75;8.75;;;;;10.01;87.62;99934.13;5080194;27;45454;-80
2023/03/07 10:49:05;;;;;;;;;6.75;6.00;;;;;10.00;88.85;99933.31;5034701;28;45510;-80
2023/03/07 10:51:56;;;;;;;;;9.25;6.75;;;;;10.08;88.54;99933.00;5041249;28;46494;-80
2023/03/07 10:54:30;;;;;;;;;9.75;6.50;;;;;10.24;87.48;99931.47;5038197;28;45926;-80
2023/03/07 10:57:13;;;;;;;;;7.25;2.00;;;;;10.50;87.02;99927.00;5049748;28;45418;-80
2023/03/07 10:59:49;;;;;;;;;9.00;4.00;;;;;10.77;87.69;99912.00;5043043;28;45309;-80
2023/03/07 11:02:39;;;;;;;;;9.00;6.25;;;;;11.07;85.14;99924.59;5042960;28;45426;-80
2023/03/07 11:05:30;;;;;;;;;11.50;6.25;;;;;11.27;83.75;99920.22;5084524;27;45359;-79
2023/03/07 11:07:56;;;;;;;;;13.75;6.00;;;;;11.46;82.08;99922.84;5045314;28;45412;-80
2023/03/07 11:10:33;;;;;;;;;11.50;6.75;;;;;11.67;82.10;99915.81;5043689;28;45444;-80
2023/03/07 11:13:16;;;;;;;;;9.25;7.00;;;;;11.93;83.53;99918.06;5050929;28;45569;-81
2023/03/07 11:15:43;;;;;;;;;9.00;6.00;;;;;12.12;80.13;99925.84;5041496;28;46541;-80
2023/03/07 11:18:29;;;;;;;;;8.25;5.00;;;;;12.33;78.91;99928.34;5045139;28;45414;-80
2023/03/07 11:20:55;;;;;;;;;6.75;5.75;;;;;12.46;77.26;99923.34;5064661;27;45413;-81
2023/03/07 11:23:30;;;;;;;;;10.50;6.00;;;;;12.66;79.32;99915.38;5040447;28;46791;-80